Time;durP1;ratioP1;P1;durP2;ratioP2;P2;SDS_P1;SDS_P2;PMS_P1;PMS_P2;Temp;Humidity;BMP_temperature;BMP_pressure;BME280_temperature;BME280_humidity;BME280_pressure;Samples;Min_cycle;Max_cycle;Signal;HPM_P1;HPM_P2
2021/04/17 00:00:28;;;;;;;2.80;1.23;;;;;;;;;;5045545;28;20108;-50
2021/04/17 00:02:54;;;;;;;3.03;1.00;;;;;;;;;;5054452;28;20108;-52
2021/04/17 00:05:20;;;;;;;4.55;1.08;;;;;;;;;;5055284;28;20068;-51
2021/04/17 00:07:46;;;;;;;4.03;0.93;;;;;;;;;;5058833;28;20490;-51
2021/04/17 00:10:13;;;;;;;4.78;0.90;;;;;;;;;;5055421;28;20108;-52
2021/04/17 00:12:39;;;;;;;3.03;1.05;;;;;;;;;;5051217;28;20053;-51
2021/04/17 00:15:05;;;;;;;1.88;1.17;;;;;;;;;;5051346;28;20108;-55
2021/04/17 00:17:31;;;;;;;4.88;1.27;;;;;;;;;;5048887;28;20056;-51
2021/04/17 00:19:57;;;;;;;2.15;1.10;;;;;;;;;;5057935;28;20384;-52
2021/04/17 00:22:23;;;;;;;3.10;1.10;;;;;;;;;;5043916;28;20033;-53
2021/04/17 00:24:49;;;;;;;2.15;0.70;;;;;;;;;;5051202;28;20032;-53
2021/04/17 00:27:15;;;;;;;2.00;0.80;;;;;;;;;;5050236;28;20029;-53
2021/04/17 00:29:42;;;;;;;3.58;1.45;;;;;;;;;;5050353;28;20033;-51
2021/04/17 00:32:09;;;;;;;3.00;1.00;;;;;;;;;;5056843;28;20357;-51
2021/04/17 00:34:35;;;;;;;1.77;0.93;;;;;;;;;;5063030;28;20100;-52
2021/04/17 00:37:01;;;;;;;2.90;1.17;;;;;;;;;;5040986;28;20469;-53
2021/04/17 00:39:27;;;;;;;4.90;1.20;;;;;;;;;;5043487;28;20025;-54
2021/04/17 00:41:53;;;;;;;2.55;0.90;;;;;;;;;;5055921;28;20036;-56
2021/04/17 00:44:19;;;;;;;2.80;0.93;;;;;;;;;;5047990;28;20361;-53
2021/04/17 00:46:45;;;;;;;1.50;0.85;;;;;;;;;;5036176;28;20339;-53
2021/04/17 00:49:12;;;;;;;3.08;0.90;;;;;;;;;;5045670;28;20100;-55
2021/04/17 00:51:39;;;;;;;5.25;1.52;;;;;;;;;;5056145;28;20044;-54
2021/04/17 00:54:05;;;;;;;2.17;1.02;;;;;;;;;;5046079;28;20103;-54
2021/04/17 00:56:31;;;;;;;1.30;0.90;;;;;;;;;;5057832;28;20485;-56
2021/04/17 00:58:57;;;;;;;3.20;0.82;;;;;;;;;;5055200;28;20029;-56
2021/04/17 01:01:23;;;;;;;1.67;0.95;;;;;;;;;;5054386;28;20044;-51
2021/04/17 01:03:54;;;;;;;2.35;0.90;;;;;;;;;;5054077;28;20032;-56
2021/04/17 01:06:23;;;;;;;4.95;1.13;;;;;;;;;;5045462;28;20124;-55
2021/04/17 01:09:15;;;;;;;2.22;0.90;;;;;;;;;;5043233;28;20029;-56
2021/04/17 01:11:45;;;;;;;4.53;1.30;;;;;;;;;;5065487;28;20119;-56
2021/04/17 01:14:12;;;;;;;2.75;1.00;;;;;;;;;;5042626;28;20108;-54
2021/04/17 01:16:38;;;;;;;1.88;1.10;;;;;;;;;;5059976;28;20032;-53
2021/04/17 01:19:06;;;;;;;1.83;0.85;;;;;;;;;;5061170;28;20107;-55
2021/04/17 01:21:32;;;;;;;3.40;1.13;;;;;;;;;;5058447;28;20393;-55
2021/04/17 01:24:01;;;;;;;3.20;1.20;;;;;;;;;;5059123;28;20024;-54
2021/04/17 01:26:27;;;;;;;3.42;1.15;;;;;;;;;;5053721;28;20760;-53
2021/04/17 01:28:55;;;;;;;2.90;0.95;;;;;;;;;;5055217;28;20040;-50
2021/04/17 01:31:25;;;;;;;2.63;1.23;;;;;;;;;;5052576;28;20040;-54
2021/04/17 01:33:53;;;;;;;3.25;1.02;;;;;;;;;;5053398;28;20431;-53
2021/04/17 01:36:19;;;;;;;3.53;1.23;;;;;;;;;;5061045;28;20078;-53
2021/04/17 01:38:47;;;;;;;2.72;1.17;;;;;;;;;;5063881;28;20112;-50
2021/04/17 01:41:16;;;;;;;5.35;1.10;;;;;;;;;;5062054;28;20039;-52
2021/04/17 01:43:42;;;;;;;3.75;0.93;;;;;;;;;;5051459;28;20059;-52
2021/04/17 01:46:10;;;;;;;4.03;1.02;;;;;;;;;;5058654;28;20036;-51
2021/04/17 01:48:37;;;;;;;4.20;1.00;;;;;;;;;;5055860;28;20078;-52
2021/04/17 01:51:04;;;;;;;3.85;1.40;;;;;;;;;;5048314;28;20518;-56
2021/04/17 01:53:32;;;;;;;5.70;1.20;;;;;;;;;;5046321;28;20128;-52
2021/04/17 01:55:58;;;;;;;3.58;1.38;;;;;;;;;;5046073;28;20428;-52
2021/04/17 01:58:26;;;;;;;4.50;1.20;;;;;;;;;;5052149;28;20079;-54
2021/04/17 02:00:53;;;;;;;2.22;0.85;;;;;;;;;;5056072;28;20364;-55
2021/04/17 02:03:19;;;;;;;7.57;1.45;;;;;;;;;;5061245;28;20027;-55
2021/04/17 02:05:49;;;;;;;6.13;1.45;;;;;;;;;;5044345;28;20025;-56
2021/04/17 02:08:16;;;;;;;4.47;1.42;;;;;;;;;;5054667;28;20039;-55
2021/04/17 02:10:42;;;;;;;4.78;1.60;;;;;;;;;;5059049;28;20178;-51
2021/04/17 02:13:09;;;;;;;2.35;1.00;;;;;;;;;;5053338;28;20025;-56
2021/04/17 02:15:36;;;;;;;6.72;1.80;;;;;;;;;;5054005;28;20464;-55
2021/04/17 02:18:05;;;;;;;5.32;1.50;;;;;;;;;;5053217;28;20033;-55
2021/04/17 02:20:34;;;;;;;3.08;1.83;;;;;;;;;;5053202;28;20040;-54
2021/04/17 02:23:00;;;;;;;2.78;1.40;;;;;;;;;;5052728;28;20280;-51
2021/04/17 02:25:26;;;;;;;3.13;1.48;;;;;;;;;;5056888;28;20416;-53
2021/04/17 02:27:52;;;;;;;2.03;1.20;;;;;;;;;;5067895;28;20111;-54
2021/04/17 02:30:18;;;;;;;3.80;1.30;;;;;;;;;;5060113;28;20610;-54
2021/04/17 02:32:44;;;;;;;3.80;1.33;;;;;;;;;;5056754;28;20428;-52
2021/04/17 02:35:11;;;;;;;3.13;1.42;;;;;;;;;;5053708;28;20021;-56
2021/04/17 02:37:36;;;;;;;3.83;1.35;;;;;;;;;;5043539;28;20112;-55
2021/04/17 02:40:03;;;;;;;2.08;1.52;;;;;;;;;;5052661;28;20115;-51
2021/04/17 02:42:29;;;;;;;3.20;1.20;;;;;;;;;;5055910;28;20116;-53
2021/04/17 02:44:55;;;;;;;4.78;1.40;;;;;;;;;;5054100;28;20476;-53
2021/04/17 02:47:21;;;;;;;4.10;1.10;;;;;;;;;;5053481;28;20423;-52
2021/04/17 02:49:47;;;;;;;5.03;1.65;;;;;;;;;;5046913;28;20033;-54
2021/04/17 02:52:13;;;;;;;1.00;0.85;;;;;;;;;;5052156;28;20182;-52
2021/04/17 02:54:39;;;;;;;3.58;1.50;;;;;;;;;;5042563;28;20044;-56
2021/04/17 02:57:05;;;;;;;6.63;1.48;;;;;;;;;;5042395;28;20025;-56
2021/04/17 02:59:31;;;;;;;5.63;1.40;;;;;;;;;;5059675;28;20088;-56
2021/04/17 03:01:57;;;;;;;4.88;1.17;;;;;;;;;;5058104;28;20036;-54
2021/04/17 03:04:23;;;;;;;5.63;1.48;;;;;;;;;;5054052;28;20048;-55
2021/04/17 03:06:49;;;;;;;3.40;1.20;;;;;;;;;;5046822;28;20080;-55
2021/04/17 03:09:15;;;;;;;3.90;1.48;;;;;;;;;;5037260;28;20063;-56
2021/04/17 03:11:41;;;;;;;3.05;1.40;;;;;;;;;;5049929;28;20029;-55
2021/04/17 03:14:07;;;;;;;2.95;1.45;;;;;;;;;;5041698;28;20049;-55
2021/04/17 03:16:33;;;;;;;4.03;1.85;;;;;;;;;;5056155;28;20036;-53
2021/04/17 03:18:59;;;;;;;4.38;1.55;;;;;;;;;;5053742;28;20519;-51
2021/04/17 03:21:25;;;;;;;5.60;1.58;;;;;;;;;;5065411;28;20464;-55
2021/04/17 03:23:51;;;;;;;3.40;1.45;;;;;;;;;;5052355;28;20087;-52
2021/04/17 03:26:17;;;;;;;6.32;1.80;;;;;;;;;;5037107;28;20029;-52
2021/04/17 03:28:43;;;;;;;4.63;1.63;;;;;;;;;;5051562;28;20104;-51
2021/04/17 03:31:09;;;;;;;6.28;1.40;;;;;;;;;;5056061;28;20358;-53
2021/04/17 03:33:35;;;;;;;6.85;1.83;;;;;;;;;;5057984;28;20021;-54
2021/04/17 03:36:01;;;;;;;2.67;1.65;;;;;;;;;;5049974;28;20454;-50
2021/04/17 03:38:27;;;;;;;3.38;1.58;;;;;;;;;;5051517;28;20029;-55
2021/04/17 03:40:53;;;;;;;4.63;1.67;;;;;;;;;;5053189;28;20022;-55
2021/04/17 03:43:19;;;;;;;2.85;1.52;;;;;;;;;;5046113;28;20020;-51
2021/04/17 03:45:45;;;;;;;3.97;1.77;;;;;;;;;;5052407;28;20021;-52
2021/04/17 03:48:11;;;;;;;2.83;1.33;;;;;;;;;;5046698;28;20045;-55
2021/04/17 03:50:38;;;;;;;6.63;2.17;;;;;;;;;;5050106;28;20036;-55
2021/04/17 03:53:04;;;;;;;5.57;1.70;;;;;;;;;;5051581;28;20520;-52
2021/04/17 03:55:30;;;;;;;4.13;1.63;;;;;;;;;;5051557;28;20111;-56
2021/04/17 03:57:56;;;;;;;5.45;2.03;;;;;;;;;;5049982;28;20454;-52
2021/04/17 04:00:22;;;;;;;6.63;2.00;;;;;;;;;;5056952;28;20025;-52
2021/04/17 04:02:48;;;;;;;5.40;1.55;;;;;;;;;;5055068;28;20035;-53
2021/04/17 04:05:15;;;;;;;3.63;1.40;;;;;;;;;;5048914;28;20036;-52
2021/04/17 04:07:41;;;;;;;4.25;1.92;;;;;;;;;;5061113;28;20029;-53
2021/04/17 04:10:08;;;;;;;7.95;1.83;;;;;;;;;;5047409;28;20040;-53
2021/04/17 04:12:34;;;;;;;6.68;1.80;;;;;;;;;;5048993;28;20513;-55
2021/04/17 04:15:00;;;;;;;4.13;1.88;;;;;;;;;;5060204;28;20140;-55
2021/04/17 04:17:27;;;;;;;5.65;1.70;;;;;;;;;;5055349;28;20020;-53
2021/04/17 04:19:52;;;;;;;8.68;1.85;;;;;;;;;;5050611;28;20037;-54
2021/04/17 04:22:18;;;;;;;3.38;1.75;;;;;;;;;;5047252;28;20037;-53
2021/04/17 04:24:44;;;;;;;3.75;1.75;;;;;;;;;;5055431;28;20029;-53
2021/04/17 04:27:10;;;;;;;5.13;1.63;;;;;;;;;;5056753;28;20021;-53
2021/04/17 04:29:36;;;;;;;4.03;1.63;;;;;;;;;;5052428;28;20037;-51
2021/04/17 04:32:03;;;;;;;3.83;1.98;;;;;;;;;;5053937;28;20052;-51
2021/04/17 04:34:29;;;;;;;4.80;1.73;;;;;;;;;;5048374;28;20517;-55
2021/04/17 04:36:55;;;;;;;2.78;1.55;;;;;;;;;;5060330;28;20036;-51
2021/04/17 04:39:21;;;;;;;2.78;1.40;;;;;;;;;;5063522;28;20025;-50
2021/04/17 04:41:47;;;;;;;7.32;1.67;;;;;;;;;;5063033;28;20523;-52
2021/04/17 04:44:13;;;;;;;6.00;2.00;;;;;;;;;;5061393;28;20056;-52
2021/04/17 04:46:39;;;;;;;2.80;1.48;;;;;;;;;;5053789;28;20502;-54
2021/04/17 04:49:05;;;;;;;4.15;1.60;;;;;;;;;;5062981;28;20052;-56
2021/04/17 04:51:31;;;;;;;4.47;1.50;;;;;;;;;;5053536;28;20025;-56
2021/04/17 04:53:57;;;;;;;3.30;1.55;;;;;;;;;;5051844;28;20112;-55
2021/04/17 04:56:23;;;;;;;3.33;1.80;;;;;;;;;;5049204;28;20441;-54
2021/04/17 04:58:50;;;;;;;2.53;1.42;;;;;;;;;;5051450;28;20116;-55
2021/04/17 05:01:16;;;;;;;3.80;1.60;;;;;;;;;;5043759;28;20071;-54
2021/04/17 05:03:42;;;;;;;4.00;1.40;;;;;;;;;;5044353;28;20420;-54
2021/04/17 05:06:08;;;;;;;6.60;1.58;;;;;;;;;;5057107;28;20036;-53
2021/04/17 05:08:34;;;;;;;5.40;1.50;;;;;;;;;;5061937;28;20439;-54
2021/04/17 05:11:00;;;;;;;4.97;1.33;;;;;;;;;;5054381;28;20035;-52
2021/04/17 05:13:26;;;;;;;5.47;1.50;;;;;;;;;;5050562;28;20033;-52
2021/04/17 05:15:52;;;;;;;2.42;1.50;;;;;;;;;;5041970;28;20056;-53
2021/04/17 05:18:18;;;;;;;3.08;1.50;;;;;;;;;;5041084;28;20118;-54
2021/04/17 05:20:44;;;;;;;6.13;1.63;;;;;;;;;;5054706;28;20039;-53
2021/04/17 05:23:10;;;;;;;4.07;1.75;;;;;;;;;;5047198;28;20036;-56
2021/04/17 05:25:36;;;;;;;2.78;1.60;;;;;;;;;;5063746;28;20039;-56
2021/04/17 05:28:03;;;;;;;4.18;1.90;;;;;;;;;;5058268;28;20035;-54
2021/04/17 05:30:29;;;;;;;4.05;1.73;;;;;;;;;;5063511;28;20426;-54
2021/04/17 05:32:55;;;;;;;8.32;1.90;;;;;;;;;;5052773;28;20029;-53
2021/04/17 05:35:21;;;;;;;7.07;1.95;;;;;;;;;;5054500;28;20032;-53
2021/04/17 05:37:47;;;;;;;3.65;1.60;;;;;;;;;;5053846;28;20024;-53
2021/04/17 05:40:13;;;;;;;3.28;1.70;;;;;;;;;;5060723;28;20464;-52
2021/04/17 05:42:39;;;;;;;10.85;2.33;;;;;;;;;;5049638;28;20037;-51
2021/04/17 05:45:06;;;;;;;5.20;1.80;;;;;;;;;;5040937;28;20523;-52
2021/04/17 05:47:32;;;;;;;5.07;1.95;;;;;;;;;;5051183;28;20492;-52
2021/04/17 05:49:58;;;;;;;5.70;2.15;;;;;;;;;;5064734;28;20032;-52
2021/04/17 05:52:23;;;;;;;7.63;2.03;;;;;;;;;;5054110;28;20476;-50
2021/04/17 05:54:49;;;;;;;5.15;2.35;;;;;;;;;;5041389;28;20032;-56
2021/04/17 05:57:15;;;;;;;5.18;2.08;;;;;;;;;;5049514;28;20025;-52
2021/04/17 05:59:41;;;;;;;9.55;2.33;;;;;;;;;;5061781;28;20060;-55
2021/04/17 06:02:08;;;;;;;3.40;1.60;;;;;;;;;;5044292;28;20067;-53
2021/04/17 06:04:34;;;;;;;7.03;1.80;;;;;;;;;;5035623;28;20425;-52
2021/04/17 06:07:00;;;;;;;6.43;1.92;;;;;;;;;;5060249;28;20068;-54
2021/04/17 06:09:26;;;;;;;4.47;1.77;;;;;;;;;;5058809;28;20460;-51
2021/04/17 06:11:52;;;;;;;3.88;1.90;;;;;;;;;;5064411;28;20083;-51
2021/04/17 06:14:18;;;;;;;6.18;1.85;;;;;;;;;;5041090;28;20048;-53
2021/04/17 06:16:44;;;;;;;7.13;1.63;;;;;;;;;;5062404;28;20033;-51
2021/04/17 06:19:10;;;;;;;4.63;1.85;;;;;;;;;;5038284;28;20029;-55
2021/04/17 06:21:36;;;;;;;6.10;1.95;;;;;;;;;;5054911;28;20029;-51
2021/04/17 06:24:03;;;;;;;4.85;1.60;;;;;;;;;;5059322;28;20107;-52
2021/04/17 06:26:29;;;;;;;3.08;1.70;;;;;;;;;;5055898;28;20074;-52
2021/04/17 06:28:55;;;;;;;9.07;1.95;;;;;;;;;;5053325;28;20028;-54
2021/04/17 06:31:21;;;;;;;6.70;1.95;;;;;;;;;;5045537;28;20040;-52
2021/04/17 06:33:47;;;;;;;3.75;1.60;;;;;;;;;;5057800;28;20100;-56
2021/04/17 06:36:13;;;;;;;6.45;1.90;;;;;;;;;;5053835;28;20078;-54
2021/04/17 06:38:39;;;;;;;4.63;1.98;;;;;;;;;;5053530;28;20037;-54
2021/04/17 06:41:08;;;;;;;4.50;1.77;;;;;;;;;;5052831;28;20075;-51
2021/04/17 06:43:35;;;;;;;7.13;1.90;;;;;;;;;;5055161;28;20532;-50
2021/04/17 06:46:02;;;;;;;4.07;1.90;;;;;;;;;;5052480;28;20364;-54
2021/04/17 06:48:29;;;;;;;2.33;1.50;;;;;;;;;;5046172;28;20107;-53
2021/04/17 06:50:55;;;;;;;3.72;1.50;;;;;;;;;;5060385;28;20035;-53
2021/04/17 06:53:21;;;;;;;4.50;1.45;;;;;;;;;;5052323;28;20045;-52
2021/04/17 06:55:50;;;;;;;3.63;1.65;;;;;;;;;;5050192;28;20029;-56
2021/04/17 06:58:18;;;;;;;5.80;1.42;;;;;;;;;;5053424;28;20554;-51
2021/04/17 07:00:44;;;;;;;2.40;1.27;;;;;;;;;;5049122;28;20086;-52
2021/04/17 07:03:10;;;;;;;5.10;1.40;;;;;;;;;;5052975;28;20060;-56
2021/04/17 07:05:36;;;;;;;4.47;1.45;;;;;;;;;;5051812;28;20053;-56
2021/04/17 07:08:02;;;;;;;3.53;1.70;;;;;;;;;;5052456;28;20476;-56
2021/04/17 07:10:29;;;;;;;3.85;1.48;;;;;;;;;;5056699;28;20036;-55
2021/04/17 07:13:11;;;;;;;3.55;1.27;;;;;;;;;;5053781;28;20573;-51
2021/04/17 07:15:38;;;;;;;5.15;1.38;;;;;;;;;;5042110;28;20021;-53
2021/04/17 07:18:23;;;;;;;3.95;1.30;;;;;;;;;;5057240;28;20029;-55
2021/04/17 07:20:49;;;;;;;9.40;1.67;;;;;;;;;;5061594;28;20469;-52
2021/04/17 07:23:33;;;;;;;6.88;1.38;;;;;;;;;;5063834;28;20040;-51
2021/04/17 07:26:09;;;;;;;9.50;1.40;;;;;;;;;;5050220;28;20036;-53
2021/04/17 07:28:36;;;;;;;5.40;1.73;;;;;;;;;;5049902;28;20400;-55
2021/04/17 07:31:02;;;;;;;9.65;1.40;;;;;;;;;;5051813;28;20107;-51
2021/04/17 07:33:29;;;;;;;6.43;1.38;;;;;;;;;;5063447;28;20376;-53
2021/04/17 07:35:55;;;;;;;6.68;1.58;;;;;;;;;;5060469;28;20052;-54
2021/04/17 07:38:23;;;;;;;6.38;1.88;;;;;;;;;;5058909;28;20037;-51
2021/04/17 07:41:01;;;;;;;5.32;1.80;;;;;;;;;;5049403;28;21024;-51
2021/04/17 07:43:46;;;;;;;3.95;1.60;;;;;;;;;;5047034;28;20025;-52
2021/04/17 07:46:12;;;;;;;6.72;1.65;;;;;;;;;;5047671;28;20033;-53
2021/04/17 07:48:38;;;;;;;3.78;1.30;;;;;;;;;;5055258;28;20056;-52
2021/04/17 07:51:07;;;;;;;8.95;1.92;;;;;;;;;;5056440;28;20094;-53
2021/04/17 07:53:37;;;;;;;3.92;1.50;;;;;;;;;;5058369;28;20052;-52
2021/04/17 07:56:22;;;;;;;3.42;1.73;;;;;;;;;;5054792;28;20905;-50
2021/04/17 07:58:49;;;;;;;8.48;1.40;;;;;;;;;;5052754;28;20025;-51
2021/04/17 08:01:20;;;;;;;9.35;1.55;;;;;;;;;;5048798;28;20158;-52
2021/04/17 08:03:46;;;;;;;4.85;1.77;;;;;;;;;;5047652;28;20473;-53
2021/04/17 08:06:16;;;;;;;4.90;1.60;;;;;;;;;;5063689;28;20031;-54
2021/04/17 08:08:43;;;;;;;8.20;2.13;;;;;;;;;;5054226;28;20673;-52
2021/04/17 08:11:10;;;;;;;5.20;1.80;;;;;;;;;;5051946;28;20060;-55
2021/04/17 08:13:39;;;;;;;7.75;1.60;;;;;;;;;;5056986;28;20587;-53
2021/04/17 08:16:07;;;;;;;7.30;1.60;;;;;;;;;;5055931;28;20021;-51
2021/04/17 08:18:34;;;;;;;3.88;1.52;;;;;;;;;;5053695;28;20100;-54
2021/04/17 08:21:00;;;;;;;6.38;1.48;;;;;;;;;;5051450;28;20591;-52
2021/04/17 08:23:27;;;;;;;8.88;2.03;;;;;;;;;;5054635;28;20032;-54
2021/04/17 08:25:53;;;;;;;7.53;1.65;;;;;;;;;;5061942;28;20028;-53
2021/04/17 08:28:21;;;;;;;7.22;1.42;;;;;;;;;;5066392;28;20133;-55
2021/04/17 08:30:47;;;;;;;6.60;2.00;;;;;;;;;;5039697;28;20021;-51
2021/04/17 08:33:14;;;;;;;3.05;1.33;;;;;;;;;;5039448;28;20029;-51
2021/04/17 08:35:40;;;;;;;7.03;1.55;;;;;;;;;;5044037;28;20633;-50
2021/04/17 08:38:08;;;;;;;5.60;2.00;;;;;;;;;;5045252;28;20029;-52
2021/04/17 08:40:37;;;;;;;6.50;1.73;;;;;;;;;;5040297;28;20117;-52
2021/04/17 08:43:04;;;;;;;4.47;1.98;;;;;;;;;;5044052;28;20051;-51
2021/04/17 08:45:30;;;;;;;9.43;1.98;;;;;;;;;;5049331;28;20116;-53
2021/04/17 08:47:57;;;;;;;5.30;1.80;;;;;;;;;;5049052;28;20479;-52
2021/04/17 08:50:34;;;;;;;8.43;1.65;;;;;;;;;;5046105;28;20025;-54
2021/04/17 08:53:01;;;;;;;5.47;1.90;;;;;;;;;;5040362;28;20053;-53
2021/04/17 08:55:28;;;;;;;7.03;2.20;;;;;;;;;;5047075;28;20476;-54
2021/04/17 08:58:10;;;;;;;7.65;2.25;;;;;;;;;;5046573;28;20055;-54
2021/04/17 09:00:37;;;;;;;7.97;1.90;;;;;;;;;;5053548;28;20544;-52
2021/04/17 09:03:03;;;;;;;8.90;2.38;;;;;;;;;;5045647;28;20068;-54
2021/04/17 09:05:45;;;;;;;11.18;2.03;;;;;;;;;;5049710;28;20037;-51
2021/04/17 09:08:13;;;;;;;8.68;1.92;;;;;;;;;;5040270;28;20338;-52
2021/04/17 09:10:39;;;;;;;5.95;2.28;;;;;;;;;;5049637;28;20021;-52
2021/04/17 09:13:15;;;;;;;10.15;2.55;;;;;;;;;;5051086;28;20036;-51
2021/04/17 09:16:00;;;;;;;7.53;1.98;;;;;;;;;;5043847;28;20078;-50
2021/04/17 09:18:36;;;;;;;6.68;1.90;;;;;;;;;;5051377;28;20029;-55
2021/04/17 09:21:22;;;;;;;5.72;2.13;;;;;;;;;;5044298;28;20479;-54
2021/04/17 09:23:51;;;;;;;4.85;1.60;;;;;;;;;;5047541;28;20045;-54
2021/04/17 09:26:34;;;;;;;4.13;1.83;;;;;;;;;;5037992;28;20115;-50
2021/04/17 09:29:21;;;;;;;5.88;2.03;;;;;;;;;;5042620;28;20025;-51
2021/04/17 09:31:48;;;;;;;8.15;2.20;;;;;;;;;;5038321;28;20021;-52
2021/04/17 09:34:16;;;;;;;9.27;2.00;;;;;;;;;;5040600;28;20033;-51
2021/04/17 09:36:42;;;;;;;8.27;2.00;;;;;;;;;;5048016;28;20051;-51
2021/04/17 09:39:25;;;;;;;7.60;1.70;;;;;;;;;;5038753;28;20022;-50
2021/04/17 09:41:52;;;;;;;7.25;1.70;;;;;;;;;;5035606;28;20032;-50
2021/04/17 09:44:19;;;;;;;8.25;2.17;;;;;;;;;;5033937;28;20543;-50
2021/04/17 09:46:46;;;;;;;7.15;1.92;;;;;;;;;;5052476;28;20040;-50
2021/04/17 09:49:12;;;;;;;5.88;1.92;;;;;;;;;;5048177;28;20120;-53
2021/04/17 09:51:39;;;;;;;8.63;2.10;;;;;;;;;;5045869;28;20035;-55
2021/04/17 09:54:08;;;;;;;14.30;2.67;;;;;;;;;;5049411;28;20041;-51
2021/04/17 09:56:35;;;;;;;8.63;1.70;;;;;;;;;;5041085;28;20503;-53
2021/04/17 09:59:08;;;;;;;8.20;1.88;;;;;;;;;;5047127;28;20036;-52
2021/04/17 10:01:34;;;;;;;5.07;2.03;;;;;;;;;;5054267;28;20063;-52
2021/04/17 10:04:00;;;;;;;6.43;1.67;;;;;;;;;;5052469;28;20060;-54
2021/04/17 10:06:34;;;;;;;7.25;2.33;;;;;;;;;;5052991;28;20499;-51
2021/04/17 10:09:12;;;;;;;10.27;3.10;;;;;;;;;;5054745;28;20021;-55
2021/04/17 10:11:42;;;;;;;9.07;2.28;;;;;;;;;;5058435;28;20041;-51
2021/04/17 10:14:09;;;;;;;8.13;2.55;;;;;;;;;;5053243;28;20044;-52
2021/04/17 10:16:37;;;;;;;6.88;2.25;;;;;;;;;;5056405;28;20582;-49
2021/04/17 10:19:03;;;;;;;8.85;2.17;;;;;;;;;;5051850;28;20071;-50
2021/04/17 10:21:34;;;;;;;6.25;2.05;;;;;;;;;;5052877;28;20100;-49
2021/04/17 10:24:21;;;;;;;8.88;1.80;;;;;;;;;;5053019;28;20037;-50
2021/04/17 10:26:58;;;;;;;7.07;1.52;;;;;;;;;;5051491;28;20043;-55
2021/04/17 10:29:34;;;;;;;5.18;1.98;;;;;;;;;;5046447;28;20365;-50
2021/04/17 10:32:04;;;;;;;6.30;2.50;;;;;;;;;;5050713;28;20033;-50
2021/04/17 10:34:30;;;;;;;5.32;1.70;;;;;;;;;;5050583;28;20029;-49
2021/04/17 10:36:57;;;;;;;8.50;2.10;;;;;;;;;;5045153;28;20033;-51
2021/04/17 10:39:23;;;;;;;4.63;1.90;;;;;;;;;;5052715;28;20036;-49
2021/04/17 10:41:57;;;;;;;10.80;2.08;;;;;;;;;;5052694;28;20037;-49
2021/04/17 10:44:23;;;;;;;11.52;2.10;;;;;;;;;;5042228;28;20034;-50
2021/04/17 10:46:52;;;;;;;5.60;2.28;;;;;;;;;;5047760;28;20037;-51
2021/04/17 10:49:37;;;;;;;25.50;3.58;;;;;;;;;;5049505;28;20032;-53
2021/04/17 10:52:08;;;;;;;6.43;2.30;;;;;;;;;;5052407;28;20053;-52
2021/04/17 10:54:34;;;;;;;5.95;2.15;;;;;;;;;;5050730;28;20025;-49
2021/04/17 10:57:07;;;;;;;8.13;2.28;;;;;;;;;;5050758;28;20186;-51
2021/04/17 10:59:52;;;;;;;5.57;2.70;;;;;;;;;;5052130;28;20053;-54
2021/04/17 11:02:25;;;;;;;6.53;2.72;;;;;;;;;;5051837;28;20024;-51
2021/04/17 11:04:51;;;;;;;7.73;2.50;;;;;;;;;;5052099;28;20072;-55
2021/04/17 11:07:17;;;;;;;7.70;2.38;;;;;;;;;;5050790;28;20025;-52
2021/04/17 11:09:49;;;;;;;8.93;2.67;;;;;;;;;;5042665;28;20028;-51
2021/04/17 11:12:30;;;;;;;6.25;2.50;;;;;;;;;;5047412;28;20112;-50
2021/04/17 11:15:12;;;;;;;12.52;2.75;;;;;;;;;;5046816;28;20100;-51
2021/04/17 11:17:38;;;;;;;5.53;2.22;;;;;;;;;;5051787;28;20032;-54
2021/04/17 11:20:15;;;;;;;8.20;2.58;;;;;;;;;;5041477;28;20113;-54
2021/04/17 11:22:41;;;;;;;6.45;2.70;;;;;;;;;;5035451;28;20033;-51
2021/04/17 11:25:07;;;;;;;7.65;2.78;;;;;;;;;;5037934;28;20045;-50
2021/04/17 11:27:34;;;;;;;9.73;3.08;;;;;;;;;;5044348;28;20028;-49
2021/04/17 11:30:04;;;;;;;9.27;2.50;;;;;;;;;;5046876;28;20397;-50
2021/04/17 11:32:30;;;;;;;14.00;2.90;;;;;;;;;;5048256;28;20024;-52
2021/04/17 11:34:56;;;;;;;7.22;2.75;;;;;;;;;;5048823;28;20075;-49
2021/04/17 11:37:23;;;;;;;8.30;2.60;;;;;;;;;;5051160;28;20029;-50
2021/04/17 11:39:49;;;;;;;17.85;3.13;;;;;;;;;;5044979;28;20687;-49
2021/04/17 11:42:17;;;;;;;9.73;2.53;;;;;;;;;;5043451;28;20102;-51
2021/04/17 11:44:46;;;;;;;7.95;2.58;;;;;;;;;;5044258;28;20485;-52
2021/04/17 11:47:13;;;;;;;8.38;2.70;;;;;;;;;;5044620;28;20064;-51
2021/04/17 11:49:39;;;;;;;5.72;2.25;;;;;;;;;;5036647;28;20120;-51
2021/04/17 11:52:06;;;;;;;9.23;2.95;;;;;;;;;;5037982;28;20689;-54
2021/04/17 11:54:32;;;;;;;6.28;2.42;;;;;;;;;;5040621;28;20060;-51
2021/04/17 11:56:58;;;;;;;5.82;2.80;;;;;;;;;;5038329;28;20026;-49
2021/04/17 11:59:24;;;;;;;6.53;2.80;;;;;;;;;;5047550;28;20029;-50
2021/04/17 12:01:50;;;;;;;10.45;2.58;;;;;;;;;;5050022;28;20493;-51
2021/04/17 12:04:17;;;;;;;10.13;2.60;;;;;;;;;;5044444;28;20120;-50
2021/04/17 12:06:43;;;;;;;8.63;2.72;;;;;;;;;;5031646;28;20369;-53
2021/04/17 12:09:09;;;;;;;8.73;3.10;;;;;;;;;;5049249;28;20045;-50
2021/04/17 12:11:35;;;;;;;9.55;2.47;;;;;;;;;;5040076;28;20049;-50
2021/04/17 12:14:01;;;;;;;5.93;2.65;;;;;;;;;;5040882;28;20068;-51
2021/04/17 12:16:27;;;;;;;10.38;2.90;;;;;;;;;;5041839;28;20079;-50
2021/04/17 12:18:53;;;;;;;11.98;2.42;;;;;;;;;;5039931;28;20037;-51
2021/04/17 12:21:19;;;;;;;5.25;2.58;;;;;;;;;;5049835;28;20029;-50
2021/04/17 12:23:47;;;;;;;8.00;2.55;;;;;;;;;;5049453;28;20393;-51
2021/04/17 12:26:13;;;;;;;8.18;2.72;;;;;;;;;;5050590;28;20029;-53
2021/04/17 12:28:39;;;;;;;7.20;3.10;;;;;;;;;;5039424;28;20040;-53
2021/04/17 12:31:04;;;;;;;6.97;2.50;;;;;;;;;;5036983;28;20048;-52
2021/04/17 12:33:30;;;;;;;6.50;3.13;;;;;;;;;;5056058;28;20094;-50
2021/04/17 12:35:56;;;;;;;10.50;2.83;;;;;;;;;;5057692;28;20039;-53
2021/04/17 12:38:22;;;;;;;10.13;2.95;;;;;;;;;;5055077;28;20029;-50
2021/04/17 12:40:54;;;;;;;8.77;2.85;;;;;;;;;;5055071;28;20029;-50
2021/04/17 12:43:20;;;;;;;9.23;2.38;;;;;;;;;;5041095;28;20033;-49
2021/04/17 12:45:46;;;;;;;9.02;2.33;;;;;;;;;;5054917;28;20029;-50
2021/04/17 12:48:14;;;;;;;11.25;2.65;;;;;;;;;;5044110;28;20049;-51
2021/04/17 12:50:40;;;;;;;9.57;3.03;;;;;;;;;;5035077;28;20021;-51
2021/04/17 12:53:06;;;;;;;9.25;2.45;;;;;;;;;;5055859;28;20052;-49
2021/04/17 12:55:32;;;;;;;13.18;2.80;;;;;;;;;;5057404;28;20021;-49
2021/04/17 12:57:58;;;;;;;7.90;2.40;;;;;;;;;;5051323;28;20452;-50
2021/04/17 13:00:25;;;;;;;6.22;2.70;;;;;;;;;;5054399;28;20021;-51
2021/04/17 13:02:51;;;;;;;9.48;2.90;;;;;;;;;;5063577;28;20029;-49
2021/04/17 13:05:17;;;;;;;8.48;3.05;;;;;;;;;;5051936;28;20024;-51
2021/04/17 13:07:43;;;;;;;8.82;2.60;;;;;;;;;;5045823;28;20028;-50
2021/04/17 13:10:09;;;;;;;8.20;2.97;;;;;;;;;;5053615;28;20029;-51
2021/04/17 13:12:35;;;;;;;10.13;3.42;;;;;;;;;;5054714;28;20602;-50
2021/04/17 13:15:01;;;;;;;10.18;3.08;;;;;;;;;;5045108;28;20022;-50
2021/04/17 13:17:27;;;;;;;14.82;3.17;;;;;;;;;;5033863;28;20056;-49
2021/04/17 13:19:53;;;;;;;6.10;2.65;;;;;;;;;;5046365;28;20024;-50
2021/04/17 13:22:19;;;;;;;8.30;3.38;;;;;;;;;;5054176;28;20033;-50
2021/04/17 13:24:45;;;;;;;9.02;2.78;;;;;;;;;;5052495;28;20044;-51
2021/04/17 13:27:12;;;;;;;6.68;2.80;;;;;;;;;;5053318;28;20452;-51
2021/04/17 13:29:38;;;;;;;8.25;2.92;;;;;;;;;;5051372;28;20592;-51
2021/04/17 13:32:04;;;;;;;8.18;3.38;;;;;;;;;;5042681;28;20037;-50
2021/04/17 13:34:30;;;;;;;11.70;3.38;;;;;;;;;;5052218;28;20021;-53
2021/04/17 13:36:56;;;;;;;10.15;3.47;;;;;;;;;;5051405;28;20025;-52
2021/04/17 13:39:23;;;;;;;7.82;3.53;;;;;;;;;;5051747;28;20076;-52
2021/04/17 13:41:49;;;;;;;9.02;3.53;;;;;;;;;;5042371;28;20496;-51
2021/04/17 13:44:15;;;;;;;11.00;3.83;;;;;;;;;;5057327;28;20029;-52
2021/04/17 13:46:41;;;;;;;9.30;2.83;;;;;;;;;;5050507;28;20060;-52
2021/04/17 13:49:07;;;;;;;5.97;3.00;;;;;;;;;;5045053;28;20053;-49
2021/04/17 13:51:33;;;;;;;13.63;3.05;;;;;;;;;;5049687;28;20021;-50
2021/04/17 13:54:00;;;;;;;11.40;3.50;;;;;;;;;;5046687;28;20525;-49
2021/04/17 13:56:26;;;;;;;9.43;3.35;;;;;;;;;;5052386;28;20021;-49
2021/04/17 13:58:52;;;;;;;11.75;3.08;;;;;;;;;;5052745;28;20040;-49
2021/04/17 14:01:19;;;;;;;8.38;3.72;;;;;;;;;;5057749;28;20029;-49
2021/04/17 14:03:45;;;;;;;6.47;3.13;;;;;;;;;;5044849;28;20013;-49
2021/04/17 14:06:11;;;;;;;8.68;3.83;;;;;;;;;;5039174;28;20037;-49
2021/04/17 14:08:37;;;;;;;9.60;3.25;;;;;;;;;;5047483;28;20073;-50
2021/04/17 14:11:04;;;;;;;10.70;4.07;;;;;;;;;;5052051;28;20056;-51
2021/04/17 14:13:31;;;;;;;10.50;3.90;;;;;;;;;;5052690;28;20112;-50
2021/04/17 14:15:57;;;;;;;8.02;3.35;;;;;;;;;;5054133;28;20029;-50
2021/04/17 14:18:23;;;;;;;8.50;2.90;;;;;;;;;;5056034;28;20031;-50
2021/04/17 14:20:49;;;;;;;17.45;3.78;;;;;;;;;;5052579;28;20037;-50
2021/04/17 14:23:17;;;;;;;7.93;3.00;;;;;;;;;;5058512;28;20119;-52
2021/04/17 14:25:43;;;;;;;7.25;2.83;;;;;;;;;;5047601;28;20055;-51
2021/04/17 14:28:09;;;;;;;9.25;3.40;;;;;;;;;;5049519;28;20373;-49
2021/04/17 14:30:35;;;;;;;10.95;3.85;;;;;;;;;;5052421;28;20025;-49
2021/04/17 14:33:01;;;;;;;9.45;3.65;;;;;;;;;;5052065;28;20350;-49
2021/04/17 14:35:28;;;;;;;6.07;2.92;;;;;;;;;;5049549;28;20024;-50
2021/04/17 14:37:54;;;;;;;8.43;3.35;;;;;;;;;;5050089;28;20085;-51
2021/04/17 14:40:21;;;;;;;9.63;3.20;;;;;;;;;;5055229;28;20580;-50
2021/04/17 14:42:48;;;;;;;8.27;3.55;;;;;;;;;;5059067;28;20056;-54